ココス (キーリング) 諸島 の空港の天気 - METARとTAF

ココス島国際空港 ( YPCC / CCK ) - ココス諸島 ココス (キーリング) 諸島
飛行場実況気象(Metar)
観測時間08/11 13:00 CCT (08/11 06:30 UTC)
風向・風速東 6m/s
視程10km以上
天気現象
少しの雲 雲底高度 270m
全天の4割程度の雲 雲底高度 460m
全天の8割程度の雲 雲底高度 940m
気温27℃
湿度94%
気圧1012hPa
METARYPCC 110630Z 08011KT 9999 FEW009 SCT015 BKN031 27/26 Q1012 RF00.0/004.6
過去の天気等 Google飛行場航空写真 Wunderground天気予報

過去48時間のMETAR

飛行場予報(TAF)
発表時間: 8/11 11:32 CCT (8/11 05:02 UTC)
予報対象時間: 11日12時 CCT ~ 12日12時 CCT
風向・風速東 7m/s
視程10km以上
天気現象弱いしゅう雨
全天の4割程度の雲 雲底高度 300m
全天の8割程度の雲 雲底高度 610m
TAF YPCC 110502Z 1106/1206 10014KT 9999 -SHRA SCT010 BKN020 INTER 1106/1206 2000 SHRA BKN006